sensor_id;sensor_type;location;lat;lon;timestamp;pressure;altitude;pressure_sealevel;temperature;humidity
67377;BME280;54261;46.086;6.588;2023-03-19T00:00:34;92414.72;;;11.27;29.94
67377;BME280;54261;46.086;6.588;2023-03-19T00:05:36;92422.41;;;11.68;29.81
67377;BME280;54261;46.086;6.588;2023-03-19T00:10:38;92429.09;;;9.78;31.78
67377;BME280;54261;46.086;6.588;2023-03-19T00:15:40;92411.38;;;10.83;31.27
67377;BME280;54261;46.086;6.588;2023-03-19T00:20:42;92413.72;;;10.93;31.30
67377;BME280;54261;46.086;6.588;2023-03-19T00:25:44;92432.16;;;11.51;30.62
67377;BME280;54261;46.086;6.588;2023-03-19T00:30:46;92433.81;;;11.65;31.02
67377;BME280;54261;46.086;6.588;2023-03-19T00:35:48;92442.84;;;10.65;32.33
67377;BME280;54261;46.086;6.588;2023-03-19T00:40:50;92437.91;;;11.32;31.68
67377;BME280;54261;46.086;6.588;2023-03-19T00:45:53;92443.53;;;11.48;31.91
67377;BME280;54261;46.086;6.588;2023-03-19T00:50:55;92446.75;;;11.71;31.99
67377;BME280;54261;46.086;6.588;2023-03-19T00:56:02;92445.47;;;11.69;31.94
67377;BME280;54261;46.086;6.588;2023-03-19T01:01:04;92393.81;;;11.03;32.27
67377;BME280;54261;46.086;6.588;2023-03-19T01:06:07;92440.22;;;11.03;32.25
67377;BME280;54261;46.086;6.588;2023-03-19T01:11:11;92441.31;;;11.20;32.36
67377;BME280;54261;46.086;6.588;2023-03-19T01:16:14;92435.63;;;11.13;32.88
67377;BME280;54261;46.086;6.588;2023-03-19T01:21:16;92436.66;;;11.29;32.11
67377;BME280;54261;46.086;6.588;2023-03-19T01:26:22;92423.97;;;11.39;31.93
67377;BME280;54261;46.086;6.588;2023-03-19T01:31:28;92435.19;;;11.41;31.71
67377;BME280;54261;46.086;6.588;2023-03-19T01:36:56;92424.13;;;11.42;31.82
67377;BME280;54261;46.086;6.588;2023-03-19T01:42:05;92410.44;;;11.26;32.38
67377;BME280;54261;46.086;6.588;2023-03-19T01:47:32;92419.81;;;11.20;32.30
67377;BME280;54261;46.086;6.588;2023-03-19T01:52:55;92383.00;;;10.73;32.17
67377;BME280;54261;46.086;6.588;2023-03-19T01:58:05;92402.88;;;10.81;32.33
67377;BME280;54261;46.086;6.588;2023-03-19T02:03:28;92405.47;;;11.07;31.93
67377;BME280;54261;46.086;6.588;2023-03-19T02:09:03;92402.81;;;10.07;32.15
67377;BME280;54261;46.086;6.588;2023-03-19T02:14:05;92404.44;;;10.82;31.73
67377;BME280;54261;46.086;6.588;2023-03-19T02:19:15;92414.53;;;10.85;31.53
67377;BME280;54261;46.086;6.588;2023-03-19T02:24:31;92420.94;;;11.10;30.93
67377;BME280;54261;46.086;6.588;2023-03-19T02:29:41;92431.78;;;9.78;32.52
67377;BME280;54261;46.086;6.588;2023-03-19T02:34:44;92417.63;;;10.48;32.13
67377;BME280;54261;46.086;6.588;2023-03-19T02:40:03;92413.72;;;10.84;32.60
67377;BME280;54261;46.086;6.588;2023-03-19T02:45:06;92414.03;;;11.00;32.20
67377;BME280;54261;46.086;6.588;2023-03-19T02:50:09;92422.69;;;11.06;32.95
67377;BME280;54261;46.086;6.588;2023-03-19T02:55:11;92429.44;;;11.21;32.25
67377;BME280;54261;46.086;6.588;2023-03-19T03:00:14;92431.06;;;11.13;32.47
67377;BME280;54261;46.086;6.588;2023-03-19T03:05:17;92420.16;;;11.10;32.21
67377;BME280;54261;46.086;6.588;2023-03-19T03:10:20;92401.81;;;11.12;31.71
67377;BME280;54261;46.086;6.588;2023-03-19T03:15:22;92410.69;;;10.95;31.41
67377;BME280;54261;46.086;6.588;2023-03-19T03:20:24;92410.66;;;11.21;30.97
67377;BME280;54261;46.086;6.588;2023-03-19T03:25:26;92420.13;;;11.18;30.91
67377;BME280;54261;46.086;6.588;2023-03-19T03:30:29;92404.88;;;10.93;31.71
67377;BME280;54261;46.086;6.588;2023-03-19T03:35:30;92389.75;;;10.79;32.55
67377;BME280;54261;46.086;6.588;2023-03-19T03:40:32;92396.28;;;10.60;32.63
67377;BME280;54261;46.086;6.588;2023-03-19T03:45:36;92406.56;;;10.58;32.32
67377;BME280;54261;46.086;6.588;2023-03-19T03:50:38;92404.44;;;10.82;31.59
67377;BME280;54261;46.086;6.588;2023-03-19T03:55:43;92411.34;;;10.92;32.32
67377;BME280;54261;46.086;6.588;2023-03-19T04:00:45;92417.81;;;10.90;31.94
67377;BME280;54261;46.086;6.588;2023-03-19T04:05:49;92399.81;;;10.35;32.91
67377;BME280;54261;46.086;6.588;2023-03-19T04:10:54;92423.63;;;10.27;33.45
67377;BME280;54261;46.086;6.588;2023-03-19T04:15:55;92422.97;;;10.30;33.56
67377;BME280;54261;46.086;6.588;2023-03-19T04:20:58;92413.69;;;10.37;32.66
67377;BME280;54261;46.086;6.588;2023-03-19T04:26:02;92423.78;;;10.40;32.47
67377;BME280;54261;46.086;6.588;2023-03-19T04:31:06;92322.69;;;9.87;32.64
67377;BME280;54261;46.086;6.588;2023-03-19T04:36:12;92410.31;;;10.57;32.34
67377;BME280;54261;46.086;6.588;2023-03-19T04:41:14;92429.84;;;10.84;32.34
67377;BME280;54261;46.086;6.588;2023-03-19T04:46:27;92430.19;;;10.74;31.82
67377;BME280;54261;46.086;6.588;2023-03-19T04:51:29;92430.44;;;11.08;31.32
67377;BME280;54261;46.086;6.588;2023-03-19T04:56:31;92432.19;;;11.03;31.42
67377;BME280;54261;46.086;6.588;2023-03-19T05:01:34;92426.00;;;11.12;31.79
67377;BME280;54261;46.086;6.588;2023-03-19T05:06:41;92384.50;;;10.92;32.49
67377;BME280;54261;46.086;6.588;2023-03-19T05:11:43;92440.41;;;11.37;32.10
67377;BME280;54261;46.086;6.588;2023-03-19T05:16:51;92448.44;;;11.07;32.56
67377;BME280;54261;46.086;6.588;2023-03-19T05:21:53;92456.69;;;10.93;32.45
67377;BME280;54261;46.086;6.588;2023-03-19T05:26:58;92424.22;;;10.59;32.87
67377;BME280;54261;46.086;6.588;2023-03-19T05:32:13;92448.03;;;10.61;32.99
67377;BME280;54261;46.086;6.588;2023-03-19T05:37:17;92453.34;;;11.05;33.02
67377;BME280;54261;46.086;6.588;2023-03-19T05:42:25;92456.66;;;11.11;32.55
67377;BME280;54261;46.086;6.588;2023-03-19T05:47:30;92450.69;;;10.87;32.57
67377;BME280;54261;46.086;6.588;2023-03-19T05:52:32;92461.56;;;11.09;32.25
67377;BME280;54261;46.086;6.588;2023-03-19T05:57:34;92453.97;;;11.11;33.08
67377;BME280;54261;46.086;6.588;2023-03-19T06:02:42;92458.78;;;10.79;33.00
67377;BME280;54261;46.086;6.588;2023-03-19T06:08:02;92464.47;;;10.59;32.84
67377;BME280;54261;46.086;6.588;2023-03-19T06:13:22;92448.25;;;10.38;33.33
67377;BME280;54261;46.086;6.588;2023-03-19T06:18:29;92467.25;;;10.89;33.24
67377;BME280;54261;46.086;6.588;2023-03-19T06:23:33;92463.41;;;11.17;33.31
67377;BME280;54261;46.086;6.588;2023-03-19T06:28:38;92456.06;;;10.70;33.29
67377;BME280;54261;46.086;6.588;2023-03-19T06:33:40;92474.88;;;10.79;33.96
67377;BME280;54261;46.086;6.588;2023-03-19T06:38:42;92480.56;;;10.51;34.85
67377;BME280;54261;46.086;6.588;2023-03-19T06:43:44;92470.50;;;10.21;34.80
67377;BME280;54261;46.086;6.588;2023-03-19T06:48:46;92476.47;;;10.44;34.69
67377;BME280;54261;46.086;6.588;2023-03-19T06:53:48;92482.59;;;10.80;34.59
67377;BME280;54261;46.086;6.588;2023-03-19T06:58:50;92482.28;;;10.82;34.75
67377;BME280;54261;46.086;6.588;2023-03-19T07:03:52;92495.72;;;10.64;34.38
67377;BME280;54261;46.086;6.588;2023-03-19T07:08:54;92493.16;;;10.94;33.42
67377;BME280;54261;46.086;6.588;2023-03-19T07:13:56;92507.22;;;10.82;32.73
67377;BME280;54261;46.086;6.588;2023-03-19T07:18:58;92494.72;;;11.13;32.75
67377;BME280;54261;46.086;6.588;2023-03-19T07:24:00;92504.31;;;11.23;32.65
67377;BME280;54261;46.086;6.588;2023-03-19T07:29:02;92512.03;;;11.33;33.15
67377;BME280;54261;46.086;6.588;2023-03-19T07:34:04;92516.09;;;10.74;33.46
67377;BME280;54261;46.086;6.588;2023-03-19T07:39:06;92522.19;;;11.18;33.31
67377;BME280;54261;46.086;6.588;2023-03-19T07:44:08;92534.38;;;11.64;32.96
67377;BME280;54261;46.086;6.588;2023-03-19T07:49:10;92520.63;;;11.56;33.12
67377;BME280;54261;46.086;6.588;2023-03-19T07:54:12;92539.09;;;11.67;33.34
67377;BME280;54261;46.086;6.588;2023-03-19T07:59:13;92538.97;;;12.02;33.02
67377;BME280;54261;46.086;6.588;2023-03-19T08:04:15;92521.59;;;11.91;32.51
67377;BME280;54261;46.086;6.588;2023-03-19T08:09:18;92539.88;;;11.20;33.23
67377;BME280;54261;46.086;6.588;2023-03-19T08:14:20;92548.44;;;7.93;39.19
67377;BME280;54261;46.086;6.588;2023-03-19T08:19:23;92550.28;;;6.18;43.08
67377;BME280;54261;46.086;6.588;2023-03-19T08:24:24;92544.59;;;4.04;47.82
67377;BME280;54261;46.086;6.588;2023-03-19T08:29:26;92451.19;;;5.34;44.17
67377;BME280;54261;46.086;6.588;2023-03-19T08:34:28;92533.59;;;5.68;44.04
67377;BME280;54261;46.086;6.588;2023-03-19T08:39:30;92560.22;;;4.55;46.03
67377;BME280;54261;46.086;6.588;2023-03-19T08:44:32;92532.63;;;5.10;43.47
67377;BME280;54261;46.086;6.588;2023-03-19T08:49:34;92560.06;;;7.13;42.28
67377;BME280;54261;46.086;6.588;2023-03-19T08:54:36;92561.75;;;8.21;37.66
67377;BME280;54261;46.086;6.588;2023-03-19T08:59:38;92572.75;;;5.68;42.51
67377;BME280;54261;46.086;6.588;2023-03-19T09:04:43;92581.03;;;8.32;37.98
67377;BME280;54261;46.086;6.588;2023-03-19T09:09:45;92550.53;;;8.33;38.19
67377;BME280;54261;46.086;6.588;2023-03-19T09:14:47;92571.47;;;8.68;37.54
67377;BME280;54261;46.086;6.588;2023-03-19T09:19:48;92585.19;;;10.42;35.80
67377;BME280;54261;46.086;6.588;2023-03-19T09:24:50;92583.44;;;5.38;43.83
67377;BME280;54261;46.086;6.588;2023-03-19T09:29:52;92584.00;;;7.18;41.69
67377;BME280;54261;46.086;6.588;2023-03-19T09:34:54;92572.09;;;8.14;40.84
67377;BME280;54261;46.086;6.588;2023-03-19T09:39:56;92579.38;;;8.22;39.87
67377;BME280;54261;46.086;6.588;2023-03-19T09:44:58;92591.09;;;8.12;41.52
67377;BME280;54261;46.086;6.588;2023-03-19T10:00:29;92560.84;;;6.80;43.33
67377;BME280;54261;46.086;6.588;2023-03-19T10:05:43;92584.03;;;6.99;43.74
67377;BME280;54261;46.086;6.588;2023-03-19T10:16:24;92562.31;;;5.18;47.80
67377;BME280;54261;46.086;6.588;2023-03-19T10:21:34;92586.81;;;8.85;42.38
67377;BME280;54261;46.086;6.588;2023-03-19T10:26:40;92583.72;;;9.05;41.05
67377;BME280;54261;46.086;6.588;2023-03-19T10:31:52;92582.06;;;9.90;38.70
67377;BME280;54261;46.086;6.588;2023-03-19T10:37:01;92576.81;;;10.26;39.16
67377;BME280;54261;46.086;6.588;2023-03-19T10:47:28;92594.56;;;9.63;40.66
67377;BME280;54261;46.086;6.588;2023-03-19T10:52:33;92584.22;;;7.50;43.31
67377;BME280;54261;46.086;6.588;2023-03-19T10:57:36;92595.19;;;8.83;42.65
67377;BME280;54261;46.086;6.588;2023-03-19T11:02:50;92606.09;;;9.32;41.07
67377;BME280;54261;46.086;6.588;2023-03-19T11:07:56;92602.28;;;10.64;40.21
67377;BME280;54261;46.086;6.588;2023-03-19T11:13:05;92594.53;;;9.00;42.70
67377;BME280;54261;46.086;6.588;2023-03-19T11:18:26;92603.81;;;7.59;46.54
67377;BME280;54261;46.086;6.588;2023-03-19T11:23:30;92602.97;;;6.84;46.76
67377;BME280;54261;46.086;6.588;2023-03-19T11:28:41;92597.16;;;6.19;49.80
67377;BME280;54261;46.086;6.588;2023-03-19T11:44:28;92610.38;;;6.29;50.64
67377;BME280;54261;46.086;6.588;2023-03-19T11:49:41;92612.22;;;6.29;49.03
67377;BME280;54261;46.086;6.588;2023-03-19T12:00:46;92606.69;;;6.25;48.57
67377;BME280;54261;46.086;6.588;2023-03-19T12:11:35;92562.03;;;4.95;50.45
67377;BME280;54261;46.086;6.588;2023-03-19T12:17:16;92604.44;;;5.10;52.66
67377;BME280;54261;46.086;6.588;2023-03-19T12:28:12;92606.91;;;6.09;49.49
67377;BME280;54261;46.086;6.588;2023-03-19T12:33:28;92595.34;;;5.17;52.18
67377;BME280;54261;46.086;6.588;2023-03-19T12:38:46;92598.53;;;5.73;50.32
67377;BME280;54261;46.086;6.588;2023-03-19T12:44:09;92600.91;;;5.50;52.24
67377;BME280;54261;46.086;6.588;2023-03-19T12:49:21;92585.41;;;5.27;52.81
67377;BME280;54261;46.086;6.588;2023-03-19T12:54:36;92590.41;;;5.34;53.30
67377;BME280;54261;46.086;6.588;2023-03-19T12:59:54;92596.47;;;6.32;51.31
67377;BME280;54261;46.086;6.588;2023-03-19T13:05:38;92590.44;;;7.31;49.94
67377;BME280;54261;46.086;6.588;2023-03-19T13:10:42;92581.69;;;8.01;48.05
67377;BME280;54261;46.086;6.588;2023-03-19T13:15:47;92582.91;;;6.67;49.89
67377;BME280;54261;46.086;6.588;2023-03-19T13:21:14;92576.97;;;8.71;48.12
67377;BME280;54261;46.086;6.588;2023-03-19T13:26:21;92575.72;;;7.76;47.15
67377;BME280;54261;46.086;6.588;2023-03-19T13:31:24;92576.06;;;10.60;44.75
67377;BME280;54261;46.086;6.588;2023-03-19T13:36:27;92566.91;;;6.86;48.95
67377;BME280;54261;46.086;6.588;2023-03-19T13:46:38;92570.66;;;8.90;47.14
67377;BME280;54261;46.086;6.588;2023-03-19T13:51:41;92566.34;;;7.78;46.47
67377;BME280;54261;46.086;6.588;2023-03-19T14:07:27;92542.13;;;10.47;41.23
67377;BME280;54261;46.086;6.588;2023-03-19T14:12:33;92524.16;;;11.39;40.93
67377;BME280;54261;46.086;6.588;2023-03-19T14:17:43;92525.44;;;11.42;40.37
67377;BME280;54261;46.086;6.588;2023-03-19T14:23:17;92533.28;;;12.25;38.90
67377;BME280;54261;46.086;6.588;2023-03-19T14:29:17;92529.88;;;12.15;38.87
67377;BME280;54261;46.086;6.588;2023-03-19T14:44:49;92514.25;;;12.94;36.66
67377;BME280;54261;46.086;6.588;2023-03-19T14:55:36;92495.34;;;13.15;35.41
67377;BME280;54261;46.086;6.588;2023-03-19T15:00:42;92449.81;;;12.12;36.62
67377;BME280;54261;46.086;6.588;2023-03-19T15:05:44;92507.63;;;12.70;35.67
67377;BME280;54261;46.086;6.588;2023-03-19T15:21:19;92486.22;;;11.80;37.22
67377;BME280;54261;46.086;6.588;2023-03-19T15:26:33;92487.06;;;12.65;35.68
67377;BME280;54261;46.086;6.588;2023-03-19T15:31:42;92501.06;;;12.58;36.40
67377;BME280;54261;46.086;6.588;2023-03-19T15:37:07;92486.75;;;11.64;36.05
67377;BME280;54261;46.086;6.588;2023-03-19T15:42:10;92494.28;;;12.73;34.67
67377;BME280;54261;46.086;6.588;2023-03-19T15:47:19;92493.00;;;11.86;36.72
67377;BME280;54261;46.086;6.588;2023-03-19T15:52:22;92497.50;;;12.03;35.98
67377;BME280;54261;46.086;6.588;2023-03-19T15:57:24;92499.53;;;11.37;36.24
67377;BME280;54261;46.086;6.588;2023-03-19T16:02:31;92501.59;;;12.30;35.04
67377;BME280;54261;46.086;6.588;2023-03-19T16:07:40;92515.25;;;12.47;35.13
67377;BME280;54261;46.086;6.588;2023-03-19T16:12:48;92508.50;;;11.50;36.94
67377;BME280;54261;46.086;6.588;2023-03-19T16:17:50;92517.59;;;11.28;36.65
67377;BME280;54261;46.086;6.588;2023-03-19T16:22:54;92516.94;;;11.31;35.86
67377;BME280;54261;46.086;6.588;2023-03-19T16:27:59;92515.72;;;12.49;34.93
67377;BME280;54261;46.086;6.588;2023-03-19T16:33:03;92510.09;;;11.42;36.54
67377;BME280;54261;46.086;6.588;2023-03-19T16:38:16;92515.00;;;11.49;36.50
67377;BME280;54261;46.086;6.588;2023-03-19T16:43:22;92525.06;;;10.34;38.78
67377;BME280;54261;46.086;6.588;2023-03-19T16:48:24;92530.28;;;10.39;39.23
67377;BME280;54261;46.086;6.588;2023-03-19T16:53:28;92540.56;;;9.79;40.54
67377;BME280;54261;46.086;6.588;2023-03-19T16:58:38;92549.84;;;10.40;39.42
67377;BME280;54261;46.086;6.588;2023-03-19T17:03:44;92564.19;;;5.47;50.48
67377;BME280;54261;46.086;6.588;2023-03-19T17:08:46;92573.31;;;4.41;58.09
67377;BME280;54261;46.086;6.588;2023-03-19T17:13:48;92577.56;;;4.77;58.08
67377;BME280;54261;46.086;6.588;2023-03-19T17:18:50;92580.09;;;5.76;55.36
67377;BME280;54261;46.086;6.588;2023-03-19T17:23:53;92596.91;;;6.78;53.66
67377;BME280;54261;46.086;6.588;2023-03-19T17:28:55;92610.09;;;5.04;58.61
67377;BME280;54261;46.086;6.588;2023-03-19T17:34:02;92611.25;;;4.02;62.63
67377;BME280;54261;46.086;6.588;2023-03-19T17:39:05;92613.03;;;6.29;57.47
67377;BME280;54261;46.086;6.588;2023-03-19T17:44:07;92595.38;;;6.91;53.73
67377;BME280;54261;46.086;6.588;2023-03-19T17:54:20;92638.25;;;8.96;46.93
67377;BME280;54261;46.086;6.588;2023-03-19T17:59:22;92643.44;;;8.78;48.54
67377;BME280;54261;46.086;6.588;2023-03-19T18:04:24;92642.88;;;7.41;53.02
67377;BME280;54261;46.086;6.588;2023-03-19T18:09:26;92644.66;;;5.68;56.90
67377;BME280;54261;46.086;6.588;2023-03-19T18:14:29;92656.38;;;6.16;55.89
67377;BME280;54261;46.086;6.588;2023-03-19T18:19:34;92656.53;;;8.01;53.51
67377;BME280;54261;46.086;6.588;2023-03-19T18:24:36;92648.88;;;9.24;51.30
67377;BME280;54261;46.086;6.588;2023-03-19T18:29:38;92649.13;;;8.76;51.01
67377;BME280;54261;46.086;6.588;2023-03-19T18:34:40;92658.00;;;9.00;49.27
67377;BME280;54261;46.086;6.588;2023-03-19T18:39:42;92667.75;;;7.70;50.30
67377;BME280;54261;46.086;6.588;2023-03-19T18:44:44;92674.78;;;7.32;52.92
67377;BME280;54261;46.086;6.588;2023-03-19T18:49:46;92697.75;;;4.84;59.87
67377;BME280;54261;46.086;6.588;2023-03-19T18:54:48;92676.16;;;4.91;60.39
67377;BME280;54261;46.086;6.588;2023-03-19T18:59:49;92685.31;;;7.57;55.38
67377;BME280;54261;46.086;6.588;2023-03-19T19:04:51;92706.84;;;6.31;55.76
67377;BME280;54261;46.086;6.588;2023-03-19T19:09:53;92712.84;;;6.18;56.11
67377;BME280;54261;46.086;6.588;2023-03-19T19:14:56;92711.13;;;4.69;59.97
67377;BME280;54261;46.086;6.588;2023-03-19T19:19:59;92730.53;;;2.74;69.43
67377;BME280;54261;46.086;6.588;2023-03-19T19:25:01;92722.59;;;2.84;69.07
67377;BME280;54261;46.086;6.588;2023-03-19T19:30:04;92720.47;;;5.76;64.74
67377;BME280;54261;46.086;6.588;2023-03-19T19:35:15;92700.34;;;7.86;59.69
67377;BME280;54261;46.086;6.588;2023-03-19T19:40:20;92734.94;;;8.66;56.31
67377;BME280;54261;46.086;6.588;2023-03-19T19:50:27;92724.03;;;8.76;49.70
67377;BME280;54261;46.086;6.588;2023-03-19T19:55:29;92716.94;;;7.16;50.34
67377;BME280;54261;46.086;6.588;2023-03-19T20:00:31;92729.56;;;6.72;51.40
67377;BME280;54261;46.086;6.588;2023-03-19T20:05:33;92724.53;;;6.22;52.49
67377;BME280;54261;46.086;6.588;2023-03-19T20:10:37;92732.00;;;5.95;52.57
67377;BME280;54261;46.086;6.588;2023-03-19T20:15:40;92732.91;;;7.21;50.79
67377;BME280;54261;46.086;6.588;2023-03-19T20:20:42;92741.91;;;7.06;50.96
67377;BME280;54261;46.086;6.588;2023-03-19T20:25:45;92755.78;;;7.61;49.30
67377;BME280;54261;46.086;6.588;2023-03-19T20:30:48;92763.59;;;8.52;47.40
67377;BME280;54261;46.086;6.588;2023-03-19T20:35:51;92761.81;;;8.47;47.29
67377;BME280;54261;46.086;6.588;2023-03-19T20:40:56;92772.28;;;8.71;45.37
67377;BME280;54261;46.086;6.588;2023-03-19T20:46:01;92794.50;;;8.58;46.52
67377;BME280;54261;46.086;6.588;2023-03-19T20:51:05;92790.63;;;5.95;48.07
67377;BME280;54261;46.086;6.588;2023-03-19T20:56:15;92807.69;;;7.55;46.84
67377;BME280;54261;46.086;6.588;2023-03-19T21:01:17;92790.53;;;8.41;46.21
67377;BME280;54261;46.086;6.588;2023-03-19T21:06:22;92823.66;;;8.12;45.03
67377;BME280;54261;46.086;6.588;2023-03-19T21:11:38;92822.63;;;7.56;46.88
67377;BME280;54261;46.086;6.588;2023-03-19T21:16:41;92813.34;;;8.05;46.28
67377;BME280;54261;46.086;6.588;2023-03-19T21:21:42;92828.78;;;7.56;46.10
67377;BME280;54261;46.086;6.588;2023-03-19T21:26:45;92833.31;;;7.75;46.35
67377;BME280;54261;46.086;6.588;2023-03-19T21:31:47;92821.94;;;6.87;46.47
67377;BME280;54261;46.086;6.588;2023-03-19T21:36:49;92822.94;;;3.70;54.77
67377;BME280;54261;46.086;6.588;2023-03-19T21:41:51;92836.03;;;4.79;54.19
67377;BME280;54261;46.086;6.588;2023-03-19T21:46:54;92832.97;;;6.80;51.17
67377;BME280;54261;46.086;6.588;2023-03-19T21:51:56;92844.91;;;7.07;49.75
67377;BME280;54261;46.086;6.588;2023-03-19T21:56:57;92844.94;;;7.84;47.21
67377;BME280;54261;46.086;6.588;2023-03-19T22:02:00;92846.19;;;8.06;46.60
67377;BME280;54261;46.086;6.588;2023-03-19T22:07:02;92842.66;;;8.58;44.85
67377;BME280;54261;46.086;6.588;2023-03-19T22:12:08;92849.25;;;8.32;44.38
67377;BME280;54261;46.086;6.588;2023-03-19T22:17:15;92838.72;;;7.31;44.77
67377;BME280;54261;46.086;6.588;2023-03-19T22:22:17;92844.13;;;8.03;44.36
67377;BME280;54261;46.086;6.588;2023-03-19T22:27:19;92822.13;;;7.92;44.02
67377;BME280;54261;46.086;6.588;2023-03-19T22:32:20;92845.25;;;8.16;44.02
67377;BME280;54261;46.086;6.588;2023-03-19T22:37:24;92849.97;;;8.05;43.90
67377;BME280;54261;46.086;6.588;2023-03-19T22:42:26;92841.94;;;8.38;43.21
67377;BME280;54261;46.086;6.588;2023-03-19T22:47:30;92828.47;;;7.96;43.92
67377;BME280;54261;46.086;6.588;2023-03-19T22:52:33;92823.59;;;7.98;43.52
67377;BME280;54261;46.086;6.588;2023-03-19T22:57:35;92835.19;;;8.27;43.08
67377;BME280;54261;46.086;6.588;2023-03-19T23:02:38;92837.00;;;7.79;43.11
67377;BME280;54261;46.086;6.588;2023-03-19T23:07:40;92831.78;;;8.07;43.14
67377;BME280;54261;46.086;6.588;2023-03-19T23:12:42;92837.91;;;8.07;43.51
67377;BME280;54261;46.086;6.588;2023-03-19T23:17:44;92836.22;;;8.12;43.06
67377;BME280;54261;46.086;6.588;2023-03-19T23:22:47;92831.84;;;7.83;43.47
67377;BME280;54261;46.086;6.588;2023-03-19T23:27:49;92813.97;;;7.64;43.49
67377;BME280;54261;46.086;6.588;2023-03-19T23:32:51;92814.44;;;7.85;42.60
67377;BME280;54261;46.086;6.588;2023-03-19T23:37:54;92808.09;;;7.81;42.91
67377;BME280;54261;46.086;6.588;2023-03-19T23:42:57;92807.06;;;7.44;42.50
67377;BME280;54261;46.086;6.588;2023-03-19T23:48:03;92804.50;;;7.72;42.91
67377;BME280;54261;46.086;6.588;2023-03-19T23:53:05;92806.84;;;7.40;43.54
67377;BME280;54261;46.086;6.588;2023-03-19T23:58:07;92775.91;;;7.72;43.35
